createdAt,value
2023-01-06T00:00:43.493Z,44.04
2023-01-06T00:03:53.621Z,42.29
2023-01-06T00:07:00.468Z,46.86
2023-01-06T00:10:07.011Z,42.76
2023-01-06T00:13:16.782Z,46.37
2023-01-06T00:16:25.033Z,43.71
2023-01-06T00:19:31.954Z,37.75
2023-01-06T00:22:38.580Z,30.69
2023-01-06T00:25:53.326Z,30.83
2023-01-06T00:29:02.015Z,28.72
2023-01-06T00:32:09.698Z,27.21
2023-01-06T00:35:15.925Z,33.21
2023-01-06T00:38:23.449Z,34.24
2023-01-06T00:41:41.889Z,27.09
2023-01-06T00:44:51.491Z,27.82
2023-01-06T00:47:57.655Z,28.99
2023-01-06T00:51:05.003Z,26.76
2023-01-06T00:54:13.723Z,32.95
2023-01-06T00:57:20.644Z,30.62
2023-01-06T01:00:29.289Z,86.52
2023-01-06T01:03:37.161Z,25.84
2023-01-06T01:06:47.059Z,31.91
2023-01-06T01:09:54.139Z,28.44
2023-01-06T01:13:00.184Z,27.62
2023-01-06T01:16:12.563Z,27.56
2023-01-06T01:19:20.025Z,24.37
2023-01-06T01:22:30.723Z,33.63
2023-01-06T01:25:36.729Z,47.47
2023-01-06T01:28:43.643Z,61.96
2023-01-06T01:31:52.373Z,58.22
2023-01-06T01:34:59.235Z,44.75
2023-01-06T01:38:05.301Z,37.45
2023-01-06T01:41:17.703Z,38.81
2023-01-06T01:45:01.491Z,53.46
2023-01-06T01:48:26.424Z,51.03
2023-01-06T01:51:48.122Z,40.72
2023-01-06T01:54:59.292Z,41.59
2023-01-06T01:58:12.880Z,40.81
2023-01-06T02:01:19.976Z,42.16
2023-01-06T02:04:32.324Z,38.84
2023-01-06T02:07:40.787Z,39.11
2023-01-06T02:10:46.866Z,41.51
2023-01-06T02:14:08.532Z,50.05
2023-01-06T02:17:51.407Z,52.17
2023-01-06T02:21:34.936Z,55.08
2023-01-06T02:25:18.027Z,53.48
2023-01-06T02:29:30.373Z,49.52
2023-01-06T02:33:07.425Z,45.34
2023-01-06T02:36:32.801Z,55.70
2023-01-06T02:40:00.664Z,48.94
2023-01-06T02:43:31.097Z,33.48
2023-01-06T02:47:10.535Z,40.80
2023-01-06T02:50:29.780Z,46.06
2023-01-06T02:53:56.210Z,55.82
2023-01-06T02:57:18.283Z,52.93
2023-01-06T03:00:36.644Z,46.72
2023-01-06T03:03:50.803Z,50.54
2023-01-06T03:07:07.140Z,48.76
2023-01-06T03:10:21.205Z,53.78
2023-01-06T03:13:39.894Z,68.93
2023-01-06T03:16:54.383Z,85.77
2023-01-06T03:20:01.953Z,85.36
2023-01-06T03:23:11.105Z,70.55
2023-01-06T03:26:19.579Z,56.67
2023-01-06T03:29:27.734Z,43.84
2023-01-06T03:32:49.944Z,62.21
2023-01-06T03:36:23.843Z,50.38
2023-01-06T03:39:49.125Z,49.19
2023-01-06T03:43:17.514Z,42.21
2023-01-06T03:46:41.636Z,42.80
2023-01-06T03:50:05.318Z,48.96
2023-01-06T03:53:31.039Z,49.27
2023-01-06T03:56:50.302Z,50.60
2023-01-06T04:00:05.437Z,60.85
2023-01-06T04:03:20.578Z,54.75
2023-01-06T04:06:28.038Z,62.59
2023-01-06T04:09:34.572Z,62.27
2023-01-06T04:12:44.992Z,58.14
2023-01-06T04:15:54.763Z,52.97
2023-01-06T04:19:01.726Z,53.22
2023-01-06T04:22:07.948Z,59.00
2023-01-06T04:25:15.628Z,50.94
2023-01-06T04:28:24.666Z,52.15
2023-01-06T04:31:35.347Z,52.96
2023-01-06T04:34:41.995Z,46.20
2023-01-06T04:37:50.365Z,45.99
2023-01-06T04:40:56.539Z,53.84
2023-01-06T04:44:06.069Z,55.06
2023-01-06T04:47:13.146Z,59.04
2023-01-06T04:50:20.240Z,54.34
2023-01-06T04:53:26.263Z,56.64
2023-01-06T04:56:33.175Z,61.12
2023-01-06T04:59:41.751Z,58.25
2023-01-06T05:02:49.367Z,69.85
2023-01-06T05:05:55.409Z,60.26
2023-01-06T05:09:02.339Z,66.65
2023-01-06T05:12:09.581Z,73.99
2023-01-06T05:15:19.315Z,90.86
2023-01-06T05:18:25.478Z,108.40
2023-01-06T05:21:34.529Z,83.28
2023-01-06T05:24:40.781Z,56.38
2023-01-06T05:27:47.729Z,53.28
2023-01-06T05:30:56.533Z,50.62
2023-01-06T05:34:03.376Z,50.28
2023-01-06T05:37:09.474Z,109.46
2023-01-06T05:40:16.405Z,170.19
2023-01-06T05:43:23.676Z,70.50
2023-01-06T05:46:33.256Z,68.06
2023-01-06T05:49:39.298Z,72.48
2023-01-06T05:52:46.411Z,67.05
2023-01-06T05:55:52.451Z,101.34
2023-01-06T05:58:59.204Z,154.32
2023-01-06T06:02:08.000Z,144.60
2023-01-06T06:05:15.051Z,98.82
2023-01-06T06:08:21.155Z,68.62
2023-01-06T06:11:28.814Z,64.10
2023-01-06T06:14:34.910Z,71.72
2023-01-06T06:17:44.497Z,65.06
2023-01-06T06:20:50.567Z,59.35
2023-01-06T06:24:00.250Z,60.81
2023-01-06T06:27:06.863Z,63.81
2023-01-06T06:30:16.948Z,66.26
2023-01-06T06:33:25.924Z,58.67
2023-01-06T06:36:34.502Z,54.98
2023-01-06T06:39:40.627Z,65.63
2023-01-06T06:42:47.575Z,61.32
2023-01-06T06:45:53.788Z,65.47
2023-01-06T06:49:03.403Z,60.78
2023-01-06T06:52:09.633Z,66.51
2023-01-06T06:55:16.641Z,65.41
2023-01-06T06:58:23.826Z,69.14
2023-01-06T07:01:32.194Z,60.05
2023-01-06T07:04:42.188Z,61.48
2023-01-06T07:07:49.846Z,74.11
2023-01-06T07:10:55.969Z,92.36
2023-01-06T07:14:02.921Z,89.48
2023-01-06T07:17:09.169Z,98.10
2023-01-06T07:20:19.024Z,97.43
2023-01-06T07:23:27.116Z,109.32
2023-01-06T07:26:34.072Z,129.15
2023-01-06T07:29:40.338Z,110.97
2023-01-06T07:32:47.491Z,142.00
2023-01-06T07:36:00.662Z,146.94
2023-01-06T07:39:07.891Z,168.83
2023-01-06T07:42:14.714Z,312.50
2023-01-06T07:45:23.701Z,293.58
2023-01-06T07:48:29.786Z,230.08
2023-01-06T07:51:39.423Z,187.55
2023-01-06T07:54:46.282Z,245.25
2023-01-06T07:57:53.960Z,316.14
2023-01-06T08:01:00.212Z,395.78
2023-01-06T08:04:07.845Z,403.88
2023-01-06T08:07:17.276Z,348.97
2023-01-06T08:10:24.298Z,296.26
2023-01-06T08:13:30.487Z,239.03
2023-01-06T08:16:37.495Z,209.78
2023-01-06T08:19:43.581Z,177.09
2023-01-06T08:22:53.292Z,126.00
2023-01-06T08:26:06.790Z,112.85
2023-01-06T08:29:13.865Z,143.52
2023-01-06T08:32:20.051Z,147.01
2023-01-06T08:35:27.585Z,108.11
2023-01-06T08:38:38.574Z,109.86
2023-01-06T08:41:47.787Z,140.26
2023-01-06T08:44:53.862Z,158.78
2023-01-06T08:48:00.953Z,147.05
2023-01-06T08:51:09.915Z,162.61
2023-01-06T08:54:19.576Z,151.74
2023-01-06T08:57:25.816Z,252.49
2023-01-06T09:00:32.998Z,289.07
2023-01-06T09:03:39.288Z,259.33
2023-01-06T09:06:47.737Z,228.13
2023-01-06T09:09:56.769Z,220.68
2023-01-06T09:13:04.588Z,193.88
2023-01-06T09:16:14.102Z,170.62
2023-01-06T09:19:23.099Z,115.76
2023-01-06T09:22:29.295Z,121.40
2023-01-06T09:25:39.080Z,106.48
2023-01-06T09:28:45.612Z,93.31
2023-01-06T09:31:52.684Z,110.28
2023-01-06T09:34:58.763Z,127.13
2023-01-06T09:38:05.853Z,174.95
2023-01-06T09:42:00.454Z,130.68
2023-01-06T09:45:15.445Z,106.90
2023-01-06T09:48:31.176Z,102.86
2023-01-06T09:51:41.128Z,99.07
2023-01-06T09:54:59.644Z,83.03
2023-01-06T09:58:19.438Z,92.82
2023-01-06T10:01:37.562Z,89.10
2023-01-06T10:04:44.824Z,95.23
2023-01-06T10:08:05.288Z,101.06
2023-01-06T10:11:20.726Z,115.69
2023-01-06T10:14:49.017Z,166.84
2023-01-06T10:18:29.143Z,174.00
2023-01-06T10:21:47.910Z,131.23
2023-01-06T10:25:08.510Z,111.12
2023-01-06T10:28:30.477Z,111.51
2023-01-06T10:31:47.746Z,138.05
2023-01-06T10:34:55.304Z,125.00
2023-01-06T10:38:10.039Z,114.25
2023-01-06T10:41:30.067Z,100.53
2023-01-06T10:44:37.019Z,97.26
2023-01-06T10:47:48.441Z,101.83
2023-01-06T10:50:57.168Z,103.98
2023-01-06T10:54:11.820Z,102.77
2023-01-06T10:57:31.222Z,115.26
2023-01-06T11:00:37.603Z,114.03
2023-01-06T11:03:48.342Z,97.27
2023-01-06T11:07:00.915Z,90.24
2023-01-06T11:10:32.521Z,104.30
2023-01-06T11:13:41.941Z,92.71
2023-01-06T11:17:00.903Z,89.83
2023-01-06T11:20:33.725Z,85.44
2023-01-06T11:23:43.835Z,90.03
2023-01-06T11:26:56.450Z,97.49
2023-01-06T11:30:30.895Z,108.41
2023-01-06T11:33:50.078Z,112.25
2023-01-06T11:36:57.792Z,93.38
2023-01-06T11:40:11.644Z,97.98
2023-01-06T11:43:27.665Z,109.70
2023-01-06T11:46:36.874Z,103.62
2023-01-06T11:49:52.119Z,118.15
2023-01-06T11:53:21.603Z,111.78
2023-01-06T11:56:28.844Z,113.70
2023-01-06T12:00:03.049Z,113.37
2023-01-06T12:03:26.961Z,114.17
2023-01-06T12:06:43.309Z,110.06
2023-01-06T12:09:55.913Z,115.43
2023-01-06T12:13:02.409Z,108.26
2023-01-06T12:16:22.665Z,104.66
2023-01-06T12:19:43.248Z,110.32
2023-01-06T12:22:56.736Z,109.54
2023-01-06T12:26:12.079Z,116.99
2023-01-06T12:29:24.818Z,113.45
2023-01-06T12:32:44.914Z,120.00
2023-01-06T12:36:04.011Z,111.89
2023-01-06T12:39:21.256Z,110.35
2023-01-06T12:42:40.953Z,105.96
2023-01-06T12:46:02.906Z,107.65
2023-01-06T12:49:25.133Z,108.10
2023-01-06T12:52:45.027Z,139.18
2023-01-06T12:56:13.459Z,166.03
2023-01-06T12:59:37.078Z,166.51
2023-01-06T13:03:12.413Z,171.12
2023-01-06T13:06:49.703Z,194.45
2023-01-06T13:10:24.083Z,161.16
2023-01-06T13:13:58.090Z,157.11
2023-01-06T13:17:20.597Z,153.42
2023-01-06T13:20:37.137Z,170.53
2023-01-06T13:24:34.791Z,173.82
2023-01-06T13:28:08.332Z,151.91
2023-01-06T13:31:52.965Z,154.60
2023-01-06T13:35:27.440Z,178.50
2023-01-06T13:39:01.649Z,182.59
2023-01-06T13:42:11.389Z,201.92
2023-01-06T13:45:31.423Z,202.58
2023-01-06T13:48:46.903Z,181.64
2023-01-06T13:51:54.503Z,195.30
2023-01-06T13:55:10.327Z,196.22
2023-01-06T13:58:39.622Z,183.46
2023-01-06T14:01:48.568Z,218.25
2023-01-06T14:04:55.634Z,221.32
2023-01-06T14:08:07.259Z,225.31
2023-01-06T14:11:31.257Z,200.74
2023-01-06T14:14:42.143Z,197.64
2023-01-06T14:17:51.965Z,216.90
2023-01-06T14:21:08.432Z,189.27
2023-01-06T14:24:31.859Z,174.46
2023-01-06T14:28:11.192Z,185.48
2023-01-06T14:31:50.740Z,195.53
2023-01-06T14:35:06.124Z,184.01
2023-01-06T14:38:32.291Z,216.96
2023-01-06T14:41:48.695Z,233.18
2023-01-06T14:45:03.219Z,233.48
2023-01-06T14:48:18.151Z,228.66
2023-01-06T14:51:29.173Z,252.11
2023-01-06T14:54:44.672Z,257.40
2023-01-06T14:57:52.149Z,207.96
2023-01-06T15:00:58.517Z,218.04
2023-01-06T15:04:08.162Z,243.14
2023-01-06T15:07:26.452Z,263.09
2023-01-06T15:10:39.281Z,303.82
2023-01-06T15:13:47.781Z,316.71
2023-01-06T15:16:56.430Z,293.03
2023-01-06T15:20:03.085Z,306.14
2023-01-06T15:23:20.487Z,314.32
2023-01-06T15:26:31.481Z,328.02
2023-01-06T15:29:39.270Z,337.56
2023-01-06T15:32:46.137Z,354.92
2023-01-06T15:35:57.302Z,337.70
2023-01-06T15:39:10.165Z,304.30
2023-01-06T15:42:22.887Z,297.19
2023-01-06T15:45:34.718Z,321.34
2023-01-06T15:48:49.667Z,344.80
2023-01-06T15:52:05.275Z,303.23
2023-01-06T15:55:32.085Z,251.90
2023-01-06T15:58:43.776Z,239.22
2023-01-06T16:01:55.440Z,230.23
2023-01-06T16:05:02.744Z,230.18
2023-01-06T16:08:24.943Z,254.35
2023-01-06T16:11:46.444Z,336.94
2023-01-06T16:14:53.517Z,311.68
2023-01-06T16:17:59.673Z,254.25
2023-01-06T16:21:25.284Z,250.16
2023-01-06T16:24:32.042Z,283.25
2023-01-06T16:27:41.733Z,270.15
2023-01-06T16:31:09.034Z,267.48
2023-01-06T16:34:29.120Z,253.97
2023-01-06T16:37:36.819Z,231.18
2023-01-06T16:40:43.956Z,226.75
2023-01-06T16:43:52.679Z,219.66
2023-01-06T16:47:00.783Z,211.84
2023-01-06T16:50:21.009Z,217.33
2023-01-06T16:53:33.748Z,207.03
2023-01-06T16:56:41.752Z,206.99
2023-01-06T16:59:51.585Z,199.22
2023-01-06T17:02:58.339Z,216.37
2023-01-06T17:06:05.728Z,219.60
2023-01-06T17:09:23.312Z,224.31
2023-01-06T17:12:42.670Z,228.71
2023-01-06T17:15:57.962Z,216.01
2023-01-06T17:19:20.824Z,233.79
2023-01-06T17:22:33.068Z,204.13
2023-01-06T17:25:42.099Z,187.52
2023-01-06T17:28:52.595Z,163.68
2023-01-06T17:32:13.432Z,203.98
2023-01-06T17:35:30.929Z,228.52
2023-01-06T17:38:37.980Z,237.17
2023-01-06T17:41:44.271Z,239.25
2023-01-06T17:44:57.042Z,202.08
2023-01-06T17:48:05.918Z,196.91
2023-01-06T17:51:18.845Z,220.44
2023-01-06T17:54:38.861Z,216.48
2023-01-06T17:57:47.591Z,224.41
2023-01-06T18:00:53.779Z,248.70
2023-01-06T18:04:06.800Z,214.33
2023-01-06T18:07:17.278Z,191.69
2023-01-06T18:10:25.610Z,185.58
2023-01-06T18:13:38.975Z,178.68
2023-01-06T18:16:50.024Z,176.46
2023-01-06T18:19:59.349Z,164.24
2023-01-06T18:23:09.581Z,165.84
2023-01-06T18:26:41.596Z,166.79
2023-01-06T18:29:49.030Z,170.03
2023-01-06T18:32:56.433Z,177.97
2023-01-06T18:36:07.563Z,168.33
2023-01-06T18:39:14.204Z,198.07
2023-01-06T18:42:28.177Z,157.46
2023-01-06T18:45:37.478Z,153.86
2023-01-06T18:48:48.399Z,164.52
2023-01-06T18:51:58.024Z,180.99
2023-01-06T18:55:04.981Z,192.76
2023-01-06T18:58:41.451Z,182.75
2023-01-06T19:01:52.815Z,179.13
2023-01-06T19:04:59.116Z,163.18
2023-01-06T19:08:19.318Z,157.10
2023-01-06T19:11:29.533Z,166.44
2023-01-06T19:14:42.223Z,160.11
2023-01-06T19:17:54.171Z,171.55
2023-01-06T19:21:06.335Z,172.43
2023-01-06T19:24:44.542Z,180.72
2023-01-06T19:27:55.036Z,178.99
2023-01-06T19:31:03.681Z,193.22
2023-01-06T19:34:19.103Z,184.23
2023-01-06T19:37:25.375Z,191.35
2023-01-06T19:40:44.864Z,223.23
2023-01-06T19:43:52.315Z,245.12
2023-01-06T19:46:59.263Z,194.74
2023-01-06T19:50:23.224Z,189.81
2023-01-06T19:53:45.245Z,182.80
2023-01-06T19:56:56.932Z,182.99
2023-01-06T20:00:06.401Z,195.64
2023-01-06T20:03:32.375Z,194.51
2023-01-06T20:06:39.549Z,224.96
2023-01-06T20:09:45.718Z,215.73
2023-01-06T20:12:55.386Z,211.45
2023-01-06T20:16:01.631Z,237.19
2023-01-06T20:19:08.680Z,215.55
2023-01-06T20:22:14.952Z,217.49
2023-01-06T20:25:22.290Z,219.53
2023-01-06T20:28:31.166Z,216.55
2023-01-06T20:31:38.657Z,212.21
2023-01-06T20:34:44.944Z,215.53
2023-01-06T20:37:52.051Z,216.04
2023-01-06T20:40:58.435Z,203.64
2023-01-06T20:44:08.339Z,210.73
2023-01-06T20:47:14.523Z,201.29
2023-01-06T20:50:21.800Z,210.86
2023-01-06T20:53:27.977Z,217.33
2023-01-06T20:56:34.959Z,205.96
2023-01-06T20:59:44.209Z,213.44
2023-01-06T21:02:51.173Z,198.09
2023-01-06T21:05:57.377Z,202.77
2023-01-06T21:09:04.433Z,202.10
2023-01-06T21:12:11.117Z,200.61
2023-01-06T21:15:21.084Z,198.46
2023-01-06T21:18:27.220Z,184.58
2023-01-06T21:21:34.199Z,151.94
2023-01-06T21:24:40.696Z,143.94
2023-01-06T21:27:47.861Z,136.01
2023-01-06T21:30:56.779Z,135.58
2023-01-06T21:34:03.735Z,133.76
2023-01-06T21:37:10.624Z,148.02
2023-01-06T21:40:17.790Z,165.48
2023-01-06T21:43:24.022Z,149.29
2023-01-06T21:46:34.123Z,144.60
2023-01-06T21:49:41.493Z,131.20
2023-01-06T21:52:50.403Z,115.38
2023-01-06T21:55:56.599Z,115.18
2023-01-06T21:59:04.197Z,111.16
2023-01-06T22:02:13.049Z,109.92
2023-01-06T22:05:20.400Z,121.20
2023-01-06T22:08:26.762Z,128.81
2023-01-06T22:11:38.687Z,169.45
2023-01-06T22:14:46.645Z,163.19
2023-01-06T22:18:01.867Z,184.62
2023-01-06T22:21:08.528Z,166.85
2023-01-06T22:24:20.037Z,174.48
2023-01-06T22:27:26.597Z,163.31
2023-01-06T22:30:33.591Z,150.30
2023-01-06T22:33:42.252Z,173.05
2023-01-06T22:36:49.177Z,191.74
2023-01-06T22:39:55.408Z,241.80
2023-01-06T22:43:02.534Z,253.16
2023-01-06T22:46:09.268Z,209.94
2023-01-06T22:49:19.074Z,190.42
2023-01-06T22:52:25.112Z,211.61
2023-01-06T22:55:31.969Z,185.77
2023-01-06T22:58:41.461Z,187.96
2023-01-06T23:01:48.553Z,180.73
2023-01-06T23:04:57.264Z,187.81
2023-01-06T23:08:04.153Z,165.88
2023-01-06T23:11:12.516Z,163.24
2023-01-06T23:14:20.501Z,196.81
2023-01-06T23:17:26.517Z,148.32
2023-01-06T23:20:36.023Z,128.96
2023-01-06T23:23:44.873Z,142.08
2023-01-06T23:26:51.808Z,134.71
2023-01-06T23:29:57.846Z,125.78
2023-01-06T23:33:04.910Z,117.54
2023-01-06T23:36:17.229Z,112.33
2023-01-06T23:39:24.132Z,109.42
2023-01-06T23:42:30.442Z,106.14
2023-01-06T23:45:39.040Z,102.77
2023-01-06T23:48:46.412Z,108.56
2023-01-06T23:51:55.872Z,112.39
2023-01-06T23:55:01.837Z,115.44
2023-01-06T23:58:08.685Z,113.30
